Time;durP1;ratioP1;P1;durP2;ratioP2;P2;SDS_P1;SDS_P2;PMS_P1;PMS_P2;Temp;Humidity;BMP_temperature;BMP_pressure;BME280_temperature;BME280_humidity;BME280_pressure;Samples;Min_cycle;Max_cycle;Signal;HPM_P1;HPM_P2
2023/04/12 00:02:11;;;;;;;4.30;1.23;;;9.10;99.90;;;;;;5034287;28;20226;-50
2023/04/12 00:04:37;;;;;;;4.70;1.40;;;9.10;99.90;;;;;;5034398;28;20180;-51
2023/04/12 00:07:04;;;;;;;7.27;1.37;;;9.10;99.90;;;;;;5034350;28;20272;-50
2023/04/12 00:09:31;;;;;;;4.67;0.93;;;9.10;99.90;;;;;;5033983;28;20192;-52
2023/04/12 00:11:58;;;;;;;3.73;1.03;;;9.10;99.90;;;;;;5034065;28;20719;-50
2023/04/12 00:14:27;;;;;;;5.07;1.10;;;9.10;99.90;;;;;;5033652;28;20189;-51
2023/04/12 00:16:53;;;;;;;3.50;1.23;;;9.10;99.90;;;;;;5035933;28;20298;-51
2023/04/12 00:19:18;;;;;;;5.03;1.13;;;9.10;99.90;;;;;;5035650;28;20211;-51
2023/04/12 00:21:44;;;;;;;3.13;0.87;;;9.10;99.90;;;;;;5033809;28;20702;-50
2023/04/12 00:24:10;;;;;;;7.23;1.20;;;9.10;99.90;;;;;;5033993;28;20181;-51
2023/04/12 00:26:36;;;;;;;4.30;1.30;;;9.10;99.90;;;;;;5033677;28;20183;-50
2023/04/12 00:29:01;;;;;;;6.47;1.30;;;9.00;99.90;;;;;;5033956;28;20203;-51
2023/04/12 00:31:27;;;;;;;4.27;0.90;;;9.00;99.90;;;;;;5033836;28;20204;-50
2023/04/12 00:33:52;;;;;;;2.17;1.10;;;9.00;99.90;;;;;;5033561;28;20225;-51
2023/04/12 00:36:18;;;;;;;3.50;1.03;;;8.90;99.90;;;;;;5033576;28;20271;-51
2023/04/12 00:38:47;;;;;;;2.80;1.17;;;8.90;99.90;;;;;;5033505;28;20200;-51
2023/04/12 00:41:16;;;;;;;4.60;1.50;;;8.90;99.90;;;;;;5033687;28;20196;-51
2023/04/12 00:43:42;;;;;;;4.23;1.03;;;8.80;99.90;;;;;;5034020;28;20266;-52
2023/04/12 00:46:08;;;;;;;3.23;1.13;;;8.80;99.90;;;;;;5033516;28;20280;-50
2023/04/12 00:48:34;;;;;;;2.60;1.20;;;8.80;99.90;;;;;;5033478;28;20204;-51
2023/04/12 00:51:00;;;;;;;3.27;1.23;;;8.80;99.90;;;;;;5033572;28;20238;-50
2023/04/12 00:53:27;;;;;;;2.70;1.10;;;8.80;99.90;;;;;;5033575;28;20256;-52
2023/04/12 00:55:53;;;;;;;1.67;0.83;;;8.70;99.90;;;;;;5033415;28;20684;-52
2023/04/12 00:58:23;;;;;;;3.10;1.03;;;8.70;99.90;;;;;;5033523;28;20213;-51
2023/04/12 01:00:51;;;;;;;1.60;1.00;;;8.70;99.90;;;;;;5033595;28;20264;-52
2023/04/12 01:03:26;;;;;;;6.20;1.30;;;8.70;99.90;;;;;;5033515;28;20184;-52
2023/04/12 01:06:25;;;;;;;3.33;0.87;;;8.60;99.90;;;;;;5033366;28;20178;-52
2023/04/12 01:09:12;;;;;;;4.40;1.30;;;8.60;99.90;;;;;;5033330;28;20657;-50
2023/04/12 01:11:46;;;;;;;4.57;1.10;;;8.60;99.90;;;;;;5033613;28;20214;-52
2023/04/12 01:14:28;;;;;;;4.40;1.00;;;8.60;99.90;;;;;;5033251;28;20219;-50
2023/04/12 01:16:59;;;;;;;3.03;1.10;;;8.60;99.90;;;;;;5033119;28;20200;-52
2023/04/12 01:19:53;;;;;;;0.53;0.50;;;8.60;99.90;;;;;;5033429;28;20165;-51
2023/04/12 01:22:37;;;;;;;3.60;0.90;;;8.50;99.90;;;;;;5033355;28;20201;-49
2023/04/12 01:25:23;;;;;;;1.97;0.70;;;8.50;99.90;;;;;;5033168;28;20149;-52
2023/04/12 01:28:01;;;;;;;4.73;0.93;;;8.50;99.90;;;;;;5037365;28;20167;-53
2023/04/12 01:30:28;;;;;;;1.07;0.60;;;8.50;99.90;;;;;;5037300;28;20185;-46
2023/04/12 01:32:57;;;;;;;2.20;0.97;;;8.50;99.90;;;;;;5036958;28;20192;-46
2023/04/12 01:35:27;;;;;;;3.00;1.00;;;8.60;99.90;;;;;;5037068;28;20185;-45
2023/04/12 01:37:53;;;;;;;2.17;0.90;;;8.50;99.90;;;;;;5037442;28;20216;-46
2023/04/12 01:40:19;;;;;;;1.33;0.70;;;8.50;99.90;;;;;;5036918;28;20641;-45
2023/04/12 01:42:45;;;;;;;4.90;1.10;;;8.50;99.90;;;;;;5036953;28;20270;-44
2023/04/12 01:45:10;;;;;;;1.57;0.90;;;8.50;99.90;;;;;;5037007;28;20631;-46
2023/04/12 01:47:37;;;;;;;2.83;0.83;;;8.50;99.90;;;;;;5036698;28;20184;-46
2023/04/12 01:50:18;;;;;;;2.37;0.83;;;8.50;99.90;;;;;;5036904;28;20183;-47
2023/04/12 01:53:16;;;;;;;0.77;0.70;;;8.50;99.90;;;;;;5036788;28;20228;-45
2023/04/12 01:55:44;;;;;;;1.53;0.70;;;8.50;99.90;;;;;;5035793;28;20197;-45
2023/04/12 01:58:11;;;;;;;3.67;0.93;;;8.40;99.90;;;;;;5036677;28;20614;-45
2023/04/12 02:00:38;;;;;;;3.13;0.90;;;8.50;99.90;;;;;;5036708;28;20267;-45
2023/04/12 02:03:05;;;;;;;1.07;0.50;;;8.40;99.90;;;;;;5036707;28;20613;-47
2023/04/12 02:05:32;;;;;;;1.93;0.60;;;8.40;99.90;;;;;;5036359;28;20177;-45
2023/04/12 02:07:58;;;;;;;2.33;0.87;;;8.40;99.90;;;;;;5036578;28;20652;-46
2023/04/12 02:10:28;;;;;;;1.70;0.50;;;8.40;99.90;;;;;;5036567;28;20179;-45
2023/04/12 02:12:54;;;;;;;1.00;0.60;;;8.40;99.90;;;;;;5036229;28;20217;-47
2023/04/12 02:15:20;;;;;;;1.33;0.70;;;8.40;99.90;;;;;;5036499;28;20173;-46
2023/04/12 02:17:46;;;;;;;4.50;0.90;;;8.40;99.90;;;;;;5036095;28;20565;-46
2023/04/12 02:20:11;;;;;;;1.07;0.60;;;8.40;99.90;;;;;;5036067;28;20190;-44
2023/04/12 02:22:37;;;;;;;2.43;0.83;;;8.40;99.90;;;;;;5035971;28;20367;-47
2023/04/12 02:25:05;;;;;;;2.00;0.50;;;8.40;99.90;;;;;;5036029;28;20196;-44
2023/04/12 02:27:30;;;;;;;2.13;0.87;;;8.40;99.90;;;;;;5035840;28;20189;-44
2023/04/12 02:29:57;;;;;;;3.10;0.70;;;8.40;99.90;;;;;;5036145;28;20196;-46
2023/04/12 02:32:23;;;;;;;4.53;0.70;;;8.40;99.90;;;;;;5035767;28;20219;-46
2023/04/12 02:34:50;;;;;;;1.83;0.73;;;8.30;99.90;;;;;;5035738;28;20278;-47
2023/04/12 02:37:16;;;;;;;3.57;0.80;;;8.30;99.90;;;;;;5034673;28;20688;-44
2023/04/12 02:39:43;;;;;;;2.90;0.87;;;8.30;99.90;;;;;;5036000;28;20193;-45
2023/04/12 02:42:09;;;;;;;3.67;0.90;;;8.30;99.90;;;;;;5035879;28;20208;-45
2023/04/12 02:44:34;;;;;;;1.33;0.60;;;8.40;99.90;;;;;;5035903;28;20224;-46
2023/04/12 02:47:00;;;;;;;1.13;0.70;;;8.30;99.90;;;;;;5035665;28;20177;-44
2023/04/12 02:49:26;;;;;;;1.63;0.80;;;8.30;99.90;;;;;;5035566;28;20176;-45
2023/04/12 02:51:51;;;;;;;2.70;1.10;;;8.40;99.90;;;;;;5035764;28;20201;-46
2023/04/12 02:54:17;;;;;;;1.77;0.80;;;8.30;99.90;;;;;;5035747;28;20267;-46
2023/04/12 02:56:42;;;;;;;3.50;0.93;;;8.40;99.90;;;;;;5035643;28;20182;-46
2023/04/12 02:59:08;;;;;;;2.00;0.70;;;8.30;99.90;;;;;;5035427;28;20169;-46
2023/04/12 03:01:34;;;;;;;2.80;0.70;;;8.40;99.90;;;;;;5035486;28;20683;-45
2023/04/12 03:04:00;;;;;;;3.63;0.90;;;8.40;99.90;;;;;;5035284;28;20657;-45
2023/04/12 03:06:26;;;;;;;3.13;0.90;;;8.40;99.90;;;;;;5035496;28;20186;-47
2023/04/12 03:08:52;;;;;;;2.93;0.60;;;8.40;99.90;;;;;;5035201;28;20185;-45
2023/04/12 03:11:17;;;;;;;0.83;0.50;;;8.40;99.90;;;;;;5035048;28;20204;-48
2023/04/12 03:13:43;;;;;;;1.70;0.93;;;8.40;99.90;;;;;;5035133;28;20239;-45
2023/04/12 03:16:23;;;;;;;2.20;0.80;;;8.40;99.90;;;;;;5035084;28;20261;-44
2023/04/12 03:18:50;;;;;;;1.37;0.60;;;8.50;99.90;;;;;;5034975;28;20199;-48
2023/04/12 03:21:16;;;;;;;2.30;0.80;;;8.40;99.90;;;;;;5034944;28;20235;-45
2023/04/12 03:23:42;;;;;;;1.13;0.70;;;8.40;99.90;;;;;;5034935;28;20173;-46
2023/04/12 03:26:08;;;;;;;2.20;1.03;;;8.40;99.90;;;;;;5034871;28;20206;-45
2023/04/12 03:28:34;;;;;;;1.50;0.87;;;8.40;99.90;;;;;;5035069;28;20169;-45
2023/04/12 03:31:00;;;;;;;0.73;0.60;;;8.40;99.90;;;;;;5035896;28;20175;-44
2023/04/12 03:33:26;;;;;;;0.73;0.70;;;8.40;99.90;;;;;;5035891;28;20186;-46
2023/04/12 03:35:52;;;;;;;2.93;0.90;;;8.40;99.90;;;;;;5035137;28;20181;-47
2023/04/12 03:38:17;;;;;;;3.20;0.80;;;8.40;99.90;;;;;;5034847;28;20562;-47
2023/04/12 03:40:43;;;;;;;3.10;0.63;;;8.40;99.90;;;;;;5034576;28;20231;-45
2023/04/12 03:43:08;;;;;;;3.10;0.80;;;8.40;99.90;;;;;;5034484;28;20679;-45
2023/04/12 03:45:34;;;;;;;1.97;0.77;;;8.40;99.90;;;;;;5034739;28;20173;-44
2023/04/12 03:48:00;;;;;;;1.40;0.70;;;8.40;99.90;;;;;;5034736;28;20180;-45
2023/04/12 03:50:28;;;;;;;2.93;0.70;;;8.40;99.90;;;;;;5034335;28;20212;-45
2023/04/12 03:52:54;;;;;;;2.30;0.80;;;8.40;99.90;;;;;;5034712;28;20234;-47
2023/04/12 03:55:19;;;;;;;1.60;0.70;;;8.40;99.90;;;;;;5034349;28;20181;-45
2023/04/12 03:57:45;;;;;;;2.83;0.63;;;8.40;99.90;;;;;;5034312;28;20204;-45
2023/04/12 04:00:11;;;;;;;1.07;0.70;;;8.40;99.90;;;;;;5034232;28;20252;-45
2023/04/12 04:02:37;;;;;;;0.93;0.60;;;8.30;99.90;;;;;;5034337;28;20274;-45
2023/04/12 04:05:03;;;;;;;0.93;0.60;;;8.30;99.90;;;;;;5035192;28;20212;-44
2023/04/12 04:07:30;;;;;;;0.57;0.37;;;8.30;99.90;;;;;;5034633;28;20688;-45
2023/04/12 04:09:56;;;;;;;0.83;0.50;;;8.30;99.90;;;;;;5034036;28;20177;-45
2023/04/12 04:12:22;;;;;;;0.77;0.63;;;8.30;99.90;;;;;;5033911;28;20201;-45
2023/04/12 04:14:47;;;;;;;2.40;0.70;;;8.20;99.90;;;;;;5033867;28;20602;-44
2023/04/12 04:17:13;;;;;;;0.67;0.60;;;8.20;99.90;;;;;;5033844;28;20293;-44
2023/04/12 04:19:39;;;;;;;3.40;0.83;;;8.20;99.90;;;;;;5033992;28;20533;-44
2023/04/12 04:22:04;;;;;;;2.13;0.80;;;8.20;99.90;;;;;;5033795;28;20226;-44
2023/04/12 04:24:30;;;;;;;1.97;0.70;;;8.20;99.90;;;;;;5016162;28;20181;-44
2023/04/12 04:26:55;;;;;;;1.53;0.70;;;8.20;99.90;;;;;;5034018;28;20243;-43
2023/04/12 04:29:21;;;;;;;3.67;0.63;;;8.10;99.90;;;;;;5034012;28;20177;-46
2023/04/12 04:31:47;;;;;;;2.13;0.53;;;8.10;99.90;;;;;;5033614;28;20262;-45
2023/04/12 04:34:12;;;;;;;2.10;0.73;;;8.10;99.90;;;;;;5033667;28;20172;-44
2023/04/12 04:36:40;;;;;;;2.37;1.00;;;8.10;99.90;;;;;;5034102;28;20227;-44
2023/04/12 04:39:06;;;;;;;2.97;0.50;;;8.10;99.90;;;;;;5033560;28;20194;-45
2023/04/12 04:41:33;;;;;;;1.07;0.60;;;8.10;99.90;;;;;;5033427;28;20244;-44
2023/04/12 04:43:59;;;;;;;0.73;0.60;;;8.10;99.90;;;;;;5015893;28;20222;-45
2023/04/12 04:46:29;;;;;;;2.20;0.70;;;8.00;99.90;;;;;;5033535;28;20590;-45
2023/04/12 04:48:54;;;;;;;1.53;0.80;;;8.00;99.90;;;;;;5033512;28;20177;-44
2023/04/12 04:51:20;;;;;;;1.40;0.73;;;8.00;99.90;;;;;;5033391;28;20203;-44
2023/04/12 04:53:45;;;;;;;0.63;0.60;;;8.00;99.90;;;;;;5033714;28;20234;-44
2023/04/12 04:56:11;;;;;;;2.33;0.77;;;8.00;99.90;;;;;;5033404;28;20182;-44
2023/04/12 04:58:37;;;;;;;1.47;0.67;;;8.00;99.90;;;;;;5033795;28;20206;-45
2023/04/12 05:01:04;;;;;;;0.90;0.60;;;8.00;99.90;;;;;;5033069;28;20177;-45
2023/04/12 05:03:29;;;;;;;3.57;0.70;;;8.00;99.90;;;;;;5033518;28;20268;-46
2023/04/12 05:05:55;;;;;;;1.63;0.53;;;7.90;99.90;;;;;;5033486;28;20263;-46
2023/04/12 05:08:21;;;;;;;1.93;0.57;;;8.00;99.90;;;;;;5033245;28;20185;-43
2023/04/12 05:10:51;;;;;;;1.53;0.70;;;8.00;99.90;;;;;;5033473;28;20268;-46
2023/04/12 05:13:17;;;;;;;2.60;0.80;;;7.90;99.90;;;;;;5033102;28;20676;-45
2023/04/12 05:15:43;;;;;;;2.13;1.03;;;8.00;99.90;;;;;;5031274;23;20227;-47
2023/04/12 05:18:08;;;;;;;1.80;0.70;;;7.90;99.90;;;;;;5036747;28;20197;-46
2023/04/12 05:20:37;;;;;;;1.83;0.67;;;7.90;99.90;;;;;;5035551;28;20182;-47
2023/04/12 05:23:03;;;;;;;1.10;0.60;;;7.90;99.90;;;;;;5034367;28;20694;-47
2023/04/12 05:25:28;;;;;;;1.37;0.60;;;7.90;99.90;;;;;;5033772;28;20169;-48
2023/04/12 05:27:54;;;;;;;5.03;1.00;;;7.90;99.90;;;;;;5033567;28;20213;-48
2023/04/12 05:30:20;;;;;;;1.70;0.60;;;8.00;99.90;;;;;;5033741;28;20207;-48
2023/04/12 05:32:45;;;;;;;1.37;0.60;;;7.90;99.90;;;;;;5033427;28;20562;-48
2023/04/12 05:35:11;;;;;;;2.83;0.80;;;8.00;99.90;;;;;;5033820;28;20196;-47
2023/04/12 05:37:37;;;;;;;0.90;0.70;;;7.90;99.90;;;;;;5033884;28;20200;-47
2023/04/12 05:40:05;;;;;;;0.50;0.50;;;8.00;99.90;;;;;;5033795;28;20181;-47
2023/04/12 05:42:31;;;;;;;6.03;0.80;;;8.00;99.90;;;;;;5032414;28;20268;-46
2023/04/12 05:44:56;;;;;;;0.40;0.40;;;8.00;99.90;;;;;;5034407;28;20178;-47
2023/04/12 05:47:22;;;;;;;2.67;0.73;;;8.00;99.90;;;;;;5035835;28;20221;-48
2023/04/12 05:49:47;;;;;;;1.13;0.50;;;8.00;99.90;;;;;;5035598;28;20645;-46
2023/04/12 05:52:13;;;;;;;1.20;0.57;;;8.00;99.90;;;;;;5035293;28;20215;-46
2023/04/12 05:54:38;;;;;;;0.97;0.70;;;8.00;99.90;;;;;;5035104;28;20181;-46
2023/04/12 05:57:04;;;;;;;0.90;0.70;;;8.00;99.90;;;;;;5035757;28;20285;-46
2023/04/12 05:59:30;;;;;;;1.20;0.87;;;8.00;99.90;;;;;;5035160;28;20181;-47
2023/04/12 06:01:55;;;;;;;2.73;0.60;;;8.00;99.90;;;;;;5034877;28;20204;-46
2023/04/12 06:04:21;;;;;;;1.63;0.70;;;8.00;99.90;;;;;;5035683;28;20182;-46
2023/04/12 06:06:46;;;;;;;1.57;0.40;;;8.00;99.90;;;;;;5034371;28;20221;-47
2023/04/12 06:09:13;;;;;;;1.70;0.83;;;8.00;99.90;;;;;;5034168;28;20173;-47
2023/04/12 06:11:39;;;;;;;3.63;0.57;;;8.00;99.90;;;;;;5033771;28;20730;-47
2023/04/12 06:14:05;;;;;;;1.70;0.70;;;8.10;99.90;;;;;;5036145;28;20201;-48
2023/04/12 06:16:30;;;;;;;0.43;0.43;;;8.10;99.90;;;;;;5037258;28;20206;-47
2023/04/12 06:18:56;;;;;;;1.63;0.57;;;8.10;99.90;;;;;;5038010;28;20207;-47
2023/04/12 06:21:23;;;;;;;0.60;0.60;;;8.20;99.90;;;;;;5037030;28;20210;-49
2023/04/12 06:23:48;;;;;;;2.57;0.67;;;8.20;99.90;;;;;;5036807;28;20173;-47
2023/04/12 06:26:14;;;;;;;1.27;0.77;;;8.20;99.90;;;;;;5036942;28;20183;-48
2023/04/12 06:28:39;;;;;;;0.50;0.50;;;8.20;99.90;;;;;;5036993;28;20174;-49
2023/04/12 06:31:05;;;;;;;1.23;0.63;;;8.30;99.90;;;;;;5037634;28;20181;-48
2023/04/12 06:33:31;;;;;;;1.70;0.73;;;8.20;99.90;;;;;;5037082;28;20185;-48
2023/04/12 06:35:57;;;;;;;0.73;0.50;;;8.30;99.90;;;;;;5036629;28;20276;-47
2023/04/12 06:38:23;;;;;;;0.57;0.50;;;8.30;99.90;;;;;;5036637;28;20197;-48
2023/04/12 06:40:48;;;;;;;0.83;0.57;;;8.30;99.90;;;;;;5036467;28;20567;-49
2023/04/12 06:43:18;;;;;;;0.70;0.50;;;8.30;99.90;;;;;;5036429;28;20243;-48
2023/04/12 06:45:44;;;;;;;1.53;0.50;;;8.30;99.90;;;;;;5037522;28;20181;-49
2023/04/12 06:48:10;;;;;;;1.93;0.70;;;8.40;99.90;;;;;;5038347;28;20584;-49
2023/04/12 06:50:36;;;;;;;1.07;0.50;;;8.40;99.90;;;;;;5038261;28;20252;-49
2023/04/12 06:53:01;;;;;;;0.60;0.43;;;8.50;99.90;;;;;;5038884;28;20288;-48
2023/04/12 06:55:28;;;;;;;0.70;0.50;;;8.50;99.90;;;;;;5039608;28;20182;-49
2023/04/12 06:57:54;;;;;;;1.70;0.50;;;8.50;99.90;;;;;;5040019;28;20211;-49
2023/04/12 07:00:20;;;;;;;0.63;0.63;;;8.60;99.90;;;;;;5039115;28;20170;-48
2023/04/12 07:02:45;;;;;;;0.30;0.30;;;8.60;99.90;;;;;;5039887;28;20197;-48
2023/04/12 07:05:12;;;;;;;0.80;0.53;;;8.60;99.90;;;;;;5040697;28;20235;-49
2023/04/12 07:07:38;;;;;;;0.33;0.30;;;8.70;99.90;;;;;;5041274;28;20188;-49
2023/04/12 07:10:04;;;;;;;0.70;0.40;;;8.80;99.90;;;;;;5041115;28;20186;-48
2023/04/12 07:12:29;;;;;;;0.40;0.40;;;8.80;99.90;;;;;;5040843;28;20223;-49
2023/04/12 07:14:55;;;;;;;1.80;0.40;;;8.80;99.90;;;;;;5041607;28;20177;-50
2023/04/12 07:17:21;;;;;;;0.60;0.40;;;8.80;99.90;;;;;;5042463;28;20212;-50
2023/04/12 07:19:47;;;;;;;1.93;0.80;;;8.80;99.90;;;;;;5040343;28;20533;-50
2023/04/12 07:22:13;;;;;;;1.07;0.50;;;8.90;99.90;;;;;;5038455;28;20191;-47
2023/04/12 07:24:39;;;;;;;2.83;0.63;;;8.90;99.90;;;;;;5035508;28;20182;-47
2023/04/12 07:27:05;;;;;;;2.40;0.60;;;8.90;99.90;;;;;;5036285;28;20188;-46
2023/04/12 07:29:30;;;;;;;2.50;0.50;;;8.90;99.90;;;;;;5035298;28;20173;-46
2023/04/12 07:31:58;;;;;;;1.07;0.67;;;8.90;99.90;;;;;;5035074;28;20228;-47
2023/04/12 07:34:24;;;;;;;3.70;0.67;;;8.90;99.90;;;;;;5034973;28;20648;-44
2023/04/12 07:36:49;;;;;;;0.97;0.70;;;9.00;99.90;;;;;;5033748;28;20187;-45
2023/04/12 07:39:15;;;;;;;2.30;0.60;;;9.00;99.90;;;;;;5035258;28;20513;-47
2023/04/12 07:41:45;;;;;;;1.77;0.50;;;9.10;99.90;;;;;;5035168;28;20235;-47
2023/04/12 07:44:10;;;;;;;0.40;0.40;;;9.10;99.90;;;;;;5035057;28;20183;-46
2023/04/12 07:46:37;;;;;;;0.40;0.40;;;9.10;99.90;;;;;;5034690;28;20230;-45
2023/04/12 07:49:02;;;;;;;0.47;0.47;;;9.20;99.90;;;;;;5034882;28;20212;-47
2023/04/12 07:51:28;;;;;;;0.40;0.40;;;9.30;99.90;;;;;;5034490;28;20238;-47
2023/04/12 07:53:54;;;;;;;0.67;0.40;;;9.30;99.90;;;;;;5034794;28;20264;-46
2023/04/12 07:56:20;;;;;;;3.13;0.60;;;9.30;99.90;;;;;;5034409;28;20183;-47
2023/04/12 07:58:45;;;;;;;0.50;0.47;;;9.40;99.90;;;;;;5034567;28;20203;-47
2023/04/12 08:01:12;;;;;;;0.83;0.50;;;9.50;99.90;;;;;;5034467;28;20232;-45
2023/04/12 08:03:38;;;;;;;0.77;0.53;;;9.50;99.90;;;;;;5034536;28;20259;-46
2023/04/12 08:06:04;;;;;;;0.80;0.40;;;9.60;99.90;;;;;;5034453;28;20713;-47
2023/04/12 08:08:30;;;;;;;0.57;0.57;;;9.60;99.90;;;;;;5034443;28;20548;-45
2023/04/12 08:10:55;;;;;;;1.03;0.40;;;9.70;99.90;;;;;;5034071;28;20588;-46
2023/04/12 08:13:21;;;;;;;1.17;0.50;;;9.80;99.90;;;;;;5034108;28;20185;-47
2023/04/12 08:15:47;;;;;;;1.93;0.43;;;9.80;99.90;;;;;;5034068;28;20308;-46
2023/04/12 08:18:13;;;;;;;0.73;0.50;;;9.90;99.90;;;;;;5034208;28;20223;-46
2023/04/12 08:20:42;;;;;;;0.33;0.33;;;9.90;99.90;;;;;;5033990;28;20177;-45
2023/04/12 08:23:09;;;;;;;0.57;0.57;;;10.00;99.90;;;;;;5033857;28;20567;-47
2023/04/12 08:25:35;;;;;;;0.60;0.50;;;10.00;99.90;;;;;;5034056;28;20199;-46
2023/04/12 08:28:00;;;;;;;0.43;0.43;;;10.00;99.90;;;;;;5033780;28;20184;-47
2023/04/12 08:30:26;;;;;;;1.00;0.50;;;10.00;99.90;;;;;;5034056;28;20241;-46
2023/04/12 08:32:52;;;;;;;0.60;0.40;;;10.00;99.90;;;;;;5033698;28;20260;-45
2023/04/12 08:35:18;;;;;;;0.50;0.40;;;10.00;99.90;;;;;;5031666;28;20207;-45
2023/04/12 08:37:44;;;;;;;0.50;0.50;;;10.00;99.90;;;;;;5033646;28;20719;-47
2023/04/12 08:40:10;;;;;;;2.07;0.40;;;10.00;99.90;;;;;;5033651;28;20226;-46
2023/04/12 08:42:36;;;;;;;1.00;0.40;;;10.00;99.90;;;;;;5033502;28;20196;-47
2023/04/12 08:45:13;;;;;;;0.37;0.37;;;10.00;99.90;;;;;;5033587;28;20553;-46
2023/04/12 08:47:41;;;;;;;0.70;0.50;;;10.00;99.90;;;;;;5033633;28;20524;-47
2023/04/12 08:50:08;;;;;;;0.77;0.47;;;10.00;99.90;;;;;;5033822;28;20608;-46
2023/04/12 08:52:36;;;;;;;1.60;0.50;;;10.00;99.90;;;;;;5033656;28;20201;-46
2023/04/12 08:55:03;;;;;;;0.53;0.50;;;10.00;99.90;;;;;;5033695;28;20585;-47
2023/04/12 08:57:29;;;;;;;0.40;0.40;;;10.10;99.90;;;;;;5033548;28;20288;-46
2023/04/12 08:59:57;;;;;;;1.13;0.70;;;10.00;99.90;;;;;;5032151;28;20182;-47
2023/04/12 09:02:22;;;;;;;0.50;0.30;;;10.10;99.90;;;;;;5033573;28;20189;-47
2023/04/12 09:04:49;;;;;;;1.03;0.50;;;10.20;99.90;;;;;;5033299;28;20612;-47
2023/04/12 09:07:15;;;;;;;1.17;0.57;;;10.20;99.90;;;;;;5033276;28;20196;-48
2023/04/12 09:09:42;;;;;;;0.63;0.50;;;10.20;99.90;;;;;;5033275;28;20177;-46
2023/04/12 09:12:08;;;;;;;0.40;0.40;;;10.30;99.90;;;;;;5033439;28;20189;-47
2023/04/12 09:14:34;;;;;;;1.27;1.17;;;10.40;99.90;;;;;;5033288;28;20229;-48
2023/04/12 09:16:59;;;;;;;1.90;1.70;;;10.50;99.90;;;;;;5033221;28;20588;-45
2023/04/12 09:19:34;;;;;;;0.83;0.60;;;10.60;99.90;;;;;;5033745;28;20177;-48
2023/04/12 09:22:00;;;;;;;0.77;0.60;;;10.60;99.90;;;;;;5033148;28;20190;-46
2023/04/12 09:24:26;;;;;;;0.30;0.30;;;10.60;99.90;;;;;;5033187;28;20200;-47
2023/04/12 09:27:02;;;;;;;0.90;0.80;;;10.50;99.90;;;;;;5033957;28;20275;-47
2023/04/12 09:29:28;;;;;;;0.33;0.33;;;10.50;99.90;;;;;;5033101;28;20172;-47
2023/04/12 09:32:07;;;;;;;0.60;0.50;;;10.60;99.90;;;;;;5033226;28;20202;-48
2023/04/12 09:34:34;;;;;;;0.70;0.70;;;10.80;99.90;;;;;;5033328;28;20164;-46
2023/04/12 09:37:12;;;;;;;3.40;0.80;;;10.80;99.90;;;;;;5032875;28;20758;-48
2023/04/12 09:39:38;;;;;;;2.30;0.77;;;10.90;99.90;;;;;;5033364;28;20215;-47
2023/04/12 09:42:05;;;;;;;4.13;1.40;;;11.10;99.90;;;;;;5032988;28;20197;-46
2023/04/12 09:44:30;;;;;;;3.50;2.10;;;11.20;99.90;;;;;;5033249;28;20617;-46
2023/04/12 09:46:57;;;;;;;3.00;2.20;;;11.20;99.90;;;;;;5034568;28;20698;-46
2023/04/12 09:49:43;;;;;;;5.43;2.70;;;11.30;99.90;;;;;;5036779;28;20262;-47
2023/04/12 09:52:10;;;;;;;3.53;2.17;;;11.40;99.90;;;;;;5036736;28;20268;-46
2023/04/12 09:54:49;;;;;;;4.47;2.13;;;11.40;99.90;;;;;;5037051;28;20261;-47
2023/04/12 09:57:22;;;;;;;6.10;2.80;;;11.40;99.90;;;;;;5036857;28;20204;-48
2023/04/12 09:59:50;;;;;;;6.60;2.13;;;11.60;99.90;;;;;;5038585;28;20196;-51
2023/04/12 10:02:25;;;;;;;4.60;3.00;;;11.60;99.90;;;;;;5040697;28;20566;-49
2023/04/12 10:04:51;;;;;;;6.13;3.43;;;11.70;99.90;;;;;;5038232;28;20240;-48
2023/04/12 10:07:18;;;;;;;7.90;3.70;;;11.70;99.90;;;;;;5039950;28;20177;-49
2023/04/12 10:09:43;;;;;;;7.23;3.13;;;11.70;99.90;;;;;;5040250;28;20594;-49
2023/04/12 10:12:10;;;;;;;12.40;4.37;;;11.60;99.90;;;;;;5040593;28;20196;-49
2023/04/12 10:14:36;;;;;;;7.53;4.53;;;11.50;99.90;;;;;;5040638;28;20189;-50
2023/04/12 10:17:03;;;;;;;12.13;5.83;;;11.40;99.90;;;;;;5040714;28;20208;-49
2023/04/12 10:19:30;;;;;;;6.80;3.63;;;11.40;99.90;;;;;;5040846;28;20668;-49
2023/04/12 10:21:57;;;;;;;6.90;2.60;;;11.30;99.90;;;;;;5041248;28;20193;-51
2023/04/12 10:24:24;;;;;;;5.63;2.80;;;11.30;99.90;;;;;;5042161;28;20180;-50
2023/04/12 10:26:51;;;;;;;6.53;3.43;;;11.30;99.90;;;;;;5041956;28;20169;-48
2023/04/12 10:29:24;;;;;;;7.40;2.77;;;11.30;99.90;;;;;;5041001;28;20255;-50
2023/04/12 10:31:50;;;;;;;4.53;1.90;;;11.30;99.90;;;;;;5040844;28;20201;-50
2023/04/12 10:34:16;;;;;;;7.33;2.93;;;11.20;99.90;;;;;;5040579;28;20637;-49
2023/04/12 10:36:58;;;;;;;3.73;1.60;;;11.30;99.90;;;;;;5041850;28;20188;-49
2023/04/12 10:39:37;;;;;;;5.27;2.07;;;11.30;99.90;;;;;;5040580;28;20185;-48
2023/04/12 10:42:19;;;;;;;16.87;8.20;;;11.40;99.90;;;;;;5040582;28;20196;-49
2023/04/12 10:44:46;;;;;;;4.67;2.00;;;11.50;99.90;;;;;;5041089;28;20232;-49
2023/04/12 10:47:12;;;;;;;3.57;2.13;;;11.70;99.90;;;;;;5040675;28;20177;-49
2023/04/12 10:49:38;;;;;;;6.50;3.73;;;11.80;99.90;;;;;;5040262;28;20184;-49
2023/04/12 10:52:04;;;;;;;6.10;4.23;;;11.90;99.90;;;;;;5040569;28;20189;-50
2023/04/12 10:54:33;;;;;;;8.70;3.87;;;12.10;99.90;;;;;;5040639;28;20181;-48
2023/04/12 10:57:00;;;;;;;10.10;2.60;;;12.30;99.90;;;;;;5041211;28;20185;-50
2023/04/12 10:59:56;;;;;;;8.77;5.27;;;12.50;99.90;;;;;;5039938;28;20177;-49
2023/04/12 11:02:22;;;;;;;11.80;6.90;;;12.60;99.90;;;;;;5040879;28;20208;-48
2023/04/12 11:05:08;;;;;;;16.50;10.40;;;12.80;99.90;;;;;;5040546;28;20177;-50
2023/04/12 11:07:42;;;;;;;7.30;4.00;;;13.00;99.90;;;;;;5040443;28;20181;-49
2023/04/12 11:10:16;;;;;;;8.60;3.40;;;13.20;99.90;;;;;;5040229;28;20177;-50
2023/04/12 11:12:55;;;;;;;8.57;2.80;;;13.20;99.90;;;;;;5040144;28;20205;-47
2023/04/12 11:15:25;;;;;;;5.60;2.00;;;13.30;99.90;;;;;;5039269;28;20169;-49
2023/04/12 11:17:55;;;;;;;7.90;2.10;;;13.40;99.90;;;;;;5132422;23;20228;-48
2023/04/12 11:20:21;;;;;;;5.57;2.00;;;13.50;99.90;;;;;;5035109;28;20227;-48
2023/04/12 11:22:48;;;;;;;8.60;2.70;;;13.60;99.90;;;;;;5035525;28;20197;-48
2023/04/12 11:25:16;;;;;;;8.80;2.47;;;13.60;99.90;;;;;;5036019;28;20199;-49
2023/04/12 11:27:52;;;;;;;7.73;1.80;;;13.80;99.90;;;;;;5035777;28;20185;-49
2023/04/12 11:30:18;;;;;;;8.40;2.53;;;13.80;99.90;;;;;;5034852;28;20624;-50
2023/04/12 11:32:45;;;;;;;11.70;2.13;;;13.90;99.90;;;;;;5035068;28;20292;-48
2023/04/12 11:35:10;;;;;;;8.63;2.00;;;13.90;99.90;;;;;;5034774;28;20183;-48
2023/04/12 11:37:37;;;;;;;9.30;2.20;;;13.90;99.90;;;;;;5034923;28;20739;-48
2023/04/12 11:40:04;;;;;;;13.33;2.37;;;14.00;99.90;;;;;;5034975;28;20515;-48
2023/04/12 11:42:31;;;;;;;10.70;2.57;;;14.00;99.90;;;;;;5034964;28;20670;-48
2023/04/12 11:44:57;;;;;;;10.20;2.50;;;14.10;99.90;;;;;;5016956;28;20259;-48
2023/04/12 11:47:24;;;;;;;6.77;1.93;;;14.10;99.90;;;;;;5034852;28;20180;-47
2023/04/12 11:49:55;;;;;;;9.93;2.20;;;14.10;99.90;;;;;;5034599;28;20181;-49
2023/04/12 11:52:27;;;;;;;7.57;2.30;;;14.10;99.90;;;;;;5034873;28;20342;-49
2023/04/12 11:54:55;;;;;;;6.60;2.73;;;14.20;99.90;;;;;;5034942;28;20245;-47
2023/04/12 11:57:21;;;;;;;8.67;2.43;;;14.20;99.90;;;;;;5034558;28;20204;-47
2023/04/12 11:59:47;;;;;;;13.00;2.30;;;14.30;99.90;;;;;;5034797;28;20183;-49
2023/04/12 12:02:15;;;;;;;8.77;2.30;;;14.30;99.90;;;;;;5034766;28;20200;-50
2023/04/12 12:04:46;;;;;;;10.10;2.00;;;14.40;99.90;;;;;;5034499;28;20212;-52
2023/04/12 12:07:13;;;;;;;12.07;2.37;;;14.40;99.90;;;;;;5034414;28;20193;-50
2023/04/12 12:09:40;;;;;;;10.47;2.30;;;14.40;99.90;;;;;;5034426;28;20172;-50
2023/04/12 12:12:06;;;;;;;8.57;2.10;;;14.40;99.90;;;;;;5034149;28;20728;-50
2023/04/12 12:14:34;;;;;;;7.87;1.90;;;14.40;99.90;;;;;;5034323;28;20219;-50
2023/04/12 12:17:01;;;;;;;8.23;2.07;;;14.50;99.90;;;;;;5033935;28;20680;-50
2023/04/12 12:19:28;;;;;;;7.13;1.47;;;14.60;99.90;;;;;;5034316;28;20180;-51
2023/04/12 12:21:53;;;;;;;10.47;2.10;;;14.70;99.90;;;;;;5034043;28;20212;-50
2023/04/12 12:24:21;;;;;;;15.97;2.97;;;14.80;99.90;;;;;;5034087;28;20259;-51
2023/04/12 12:26:49;;;;;;;10.73;2.47;;;14.80;99.90;;;;;;5033808;28;20173;-50
2023/04/12 12:29:18;;;;;;;12.13;1.87;;;14.80;99.90;;;;;;5033833;28;20247;-52
2023/04/12 12:31:47;;;;;;;8.83;3.60;;;15.00;99.90;;;;;;5034032;28;20201;-50
2023/04/12 12:34:13;;;;;;;9.40;2.50;;;15.10;99.90;;;;;;5034007;28;20191;-51
2023/04/12 12:36:38;;;;;;;10.90;2.80;;;15.20;99.90;;;;;;5034101;28;20176;-50
2023/04/12 12:39:11;;;;;;;7.47;1.80;;;15.30;99.90;;;;;;5033733;28;20208;-49
2023/04/12 12:41:38;;;;;;;7.57;2.07;;;15.30;99.90;;;;;;5033854;28;20311;-50
2023/04/12 12:44:04;;;;;;;8.30;1.87;;;15.40;99.90;;;;;;5034235;28;20184;-49
2023/04/12 12:46:30;;;;;;;6.43;1.80;;;15.50;99.90;;;;;;5034146;28;20185;-51
2023/04/12 12:48:56;;;;;;;7.83;1.87;;;15.40;99.90;;;;;;5034031;28;20279;-49
2023/04/12 12:51:21;;;;;;;7.20;2.13;;;15.30;99.90;;;;;;5033663;28;20228;-50
2023/04/12 12:53:47;;;;;;;8.50;2.03;;;15.20;99.90;;;;;;5033511;28;20191;-49
2023/04/12 12:56:13;;;;;;;6.07;2.13;;;15.10;99.90;;;;;;5033716;28;20188;-51